createdAt,value
2018-07-07T00:00:02.372Z,1016.51
2018-07-07T00:01:02.336Z,1016.53
2018-07-07T00:02:02.298Z,1016.51
2018-07-07T00:03:02.288Z,1016.49
2018-07-07T00:04:02.208Z,1016.51
2018-07-07T00:05:02.190Z,1016.52
2018-07-07T00:06:02.146Z,1016.54
2018-07-07T00:07:02.119Z,1016.55
2018-07-07T00:08:02.087Z,1016.54
2018-07-07T00:09:02.037Z,1016.57
2018-07-07T00:10:02.006Z,1016.57
2018-07-07T00:11:01.939Z,1016.54
2018-07-07T00:12:13.312Z,1016.57
2018-07-07T00:13:01.899Z,1016.58
2018-07-07T00:14:01.825Z,1016.56
2018-07-07T00:15:01.798Z,1016.55
2018-07-07T00:16:01.781Z,1016.55
2018-07-07T00:17:01.730Z,1016.54
2018-07-07T00:18:01.717Z,1016.55
2018-07-07T00:19:01.643Z,1016.56
2018-07-07T00:20:01.607Z,1016.56
2018-07-07T00:21:01.558Z,1016.54
2018-07-07T00:22:01.519Z,1016.52
2018-07-07T00:23:01.511Z,1016.55
2018-07-07T00:24:01.436Z,1016.53
2018-07-07T00:25:01.425Z,1016.54
2018-07-07T00:26:01.403Z,1016.52
2018-07-07T00:27:01.337Z,1016.54
2018-07-07T00:28:01.346Z,1016.57
2018-07-07T00:29:01.276Z,1016.55
2018-07-07T00:30:01.224Z,1016.59
2018-07-07T00:31:01.192Z,1016.61
2018-07-07T00:32:01.193Z,1016.57
2018-07-07T00:33:01.103Z,1016.61
2018-07-07T00:34:01.067Z,1016.58
2018-07-07T00:35:01.030Z,1016.59
2018-07-07T00:36:00.984Z,1016.60
2018-07-07T00:37:01.005Z,1016.62
2018-07-07T00:38:00.923Z,1016.61
2018-07-07T00:39:00.890Z,1016.59
2018-07-07T00:40:00.875Z,1016.59
2018-07-07T00:41:00.805Z,1016.55
2018-07-07T00:42:00.798Z,1016.57
2018-07-07T00:43:00.730Z,1016.58
2018-07-07T00:44:00.695Z,1016.61
2018-07-07T00:45:00.682Z,1016.58
2018-07-07T00:46:00.632Z,1016.59
2018-07-07T00:47:00.621Z,1016.57
2018-07-07T00:48:00.551Z,1016.64
2018-07-07T00:49:00.524Z,1016.61
2018-07-07T00:50:00.472Z,1016.62
2018-07-07T00:51:00.457Z,1016.59
2018-07-07T00:52:00.422Z,1016.60
2018-07-07T00:53:00.365Z,1016.60
2018-07-07T00:54:00.319Z,1016.60
2018-07-07T00:55:00.288Z,1016.58
2018-07-07T00:56:00.229Z,1016.56
2018-07-07T00:57:00.253Z,1016.58
2018-07-07T00:58:00.154Z,1016.62
2018-07-07T00:59:00.108Z,1016.63
2018-07-07T01:00:00.112Z,1016.63
2018-07-07T01:01:00.040Z,1016.61
2018-07-07T01:02:00.055Z,1016.59
2018-07-07T01:02:59.972Z,1016.63
2018-07-07T01:03:59.941Z,1016.60
2018-07-07T01:04:59.889Z,1016.62
2018-07-07T01:05:59.882Z,1016.64
2018-07-07T01:06:59.841Z,1016.65
2018-07-07T01:07:59.775Z,1016.66
2018-07-07T01:08:59.777Z,1016.65
2018-07-07T01:09:59.721Z,1016.67
2018-07-07T01:10:59.676Z,1016.66
2018-07-07T01:11:59.650Z,1016.65
2018-07-07T01:12:59.606Z,1016.65
2018-07-07T01:13:59.547Z,1016.68
2018-07-07T01:14:59.519Z,1016.64
2018-07-07T01:15:59.511Z,1016.65
2018-07-07T01:16:59.440Z,1016.65
2018-07-07T01:17:59.398Z,1016.64
2018-07-07T01:18:59.381Z,1016.67
2018-07-07T01:19:59.323Z,1016.68
2018-07-07T01:20:59.328Z,1016.68
2018-07-07T01:22:09.364Z,1016.68
2018-07-07T01:22:59.239Z,1016.68
2018-07-07T01:23:59.172Z,1016.71
2018-07-07T01:24:59.154Z,1016.68
2018-07-07T01:25:59.119Z,1016.65
2018-07-07T01:26:59.060Z,1016.65
2018-07-07T01:27:59.034Z,1016.65
2018-07-07T01:28:58.970Z,1016.65
2018-07-07T01:29:58.952Z,1016.64
2018-07-07T01:30:58.929Z,1016.66
2018-07-07T01:31:58.883Z,1016.69
2018-07-07T01:32:58.834Z,1016.68
2018-07-07T01:33:58.811Z,1016.70
2018-07-07T01:34:58.758Z,1016.71
2018-07-07T01:35:58.764Z,1016.69
2018-07-07T01:36:58.689Z,1016.69
2018-07-07T01:37:58.659Z,1016.69
2018-07-07T01:38:58.601Z,1016.69
2018-07-07T01:39:58.578Z,1016.66
2018-07-07T01:40:58.551Z,1016.69
2018-07-07T01:41:58.494Z,1016.69
2018-07-07T01:42:58.462Z,1016.67
2018-07-07T01:43:58.421Z,1016.69
2018-07-07T01:45:08.840Z,1016.69
2018-07-07T01:45:58.366Z,1016.66
2018-07-07T01:46:58.301Z,1016.66
2018-07-07T01:47:58.266Z,1016.63
2018-07-07T01:48:58.289Z,1016.58
2018-07-07T01:49:58.192Z,1016.59
2018-07-07T01:50:58.182Z,1016.60
2018-07-07T01:51:58.126Z,1016.56
2018-07-07T01:52:58.090Z,1016.61
2018-07-07T01:53:58.035Z,1016.63
2018-07-07T01:54:57.991Z,1016.62
2018-07-07T01:55:57.991Z,1016.63
2018-07-07T01:56:57.922Z,1016.61
2018-07-07T01:57:57.897Z,1016.61
2018-07-07T01:58:57.857Z,1016.64
2018-07-07T01:59:57.837Z,1016.61
2018-07-07T02:00:57.795Z,1016.59
2018-07-07T02:01:57.753Z,1016.59
2018-07-07T02:02:57.698Z,1016.61
2018-07-07T02:03:57.671Z,1016.55
2018-07-07T02:04:57.655Z,1016.60
2018-07-07T02:05:57.595Z,1016.57
2018-07-07T02:06:57.551Z,1016.60
2018-07-07T02:07:57.527Z,1016.64
2018-07-07T02:09:08.884Z,1016.59
2018-07-07T02:09:57.449Z,1016.58
2018-07-07T02:10:57.399Z,1016.56
2018-07-07T02:11:57.385Z,1016.57
2018-07-07T02:12:57.321Z,1016.55
2018-07-07T02:13:57.286Z,1016.54
2018-07-07T02:14:57.279Z,1016.54
2018-07-07T02:15:57.205Z,1016.52
2018-07-07T02:16:57.191Z,1016.53
2018-07-07T02:17:57.156Z,1016.54
2018-07-07T02:18:57.094Z,1016.54
2018-07-07T02:19:57.082Z,1016.52
2018-07-07T02:20:57.022Z,1016.57
2018-07-07T02:21:56.995Z,1016.54
2018-07-07T02:22:56.954Z,1016.55
2018-07-07T02:23:56.920Z,1016.53
2018-07-07T02:24:56.895Z,1016.57
2018-07-07T02:25:56.845Z,1016.55
2018-07-07T02:26:56.825Z,1016.53
2018-07-07T02:27:56.790Z,1016.53
2018-07-07T02:28:56.716Z,1016.54
2018-07-07T02:29:56.727Z,1016.55
2018-07-07T02:30:56.657Z,1016.54
2018-07-07T02:31:56.645Z,1016.56
2018-07-07T02:32:56.583Z,1016.56
2018-07-07T02:33:56.552Z,1016.54
2018-07-07T02:34:56.527Z,1016.57
2018-07-07T02:35:56.461Z,1016.59
2018-07-07T02:36:56.441Z,1016.60
2018-07-07T02:37:56.392Z,1016.61
2018-07-07T02:38:56.341Z,1016.56
2018-07-07T02:39:56.341Z,1016.58
2018-07-07T02:40:56.271Z,1016.58
2018-07-07T02:41:56.240Z,1016.57
2018-07-07T02:42:56.208Z,1016.61
2018-07-07T02:43:56.184Z,1016.58
2018-07-07T02:44:56.151Z,1016.62
2018-07-07T02:45:56.097Z,1016.59
2018-07-07T02:46:56.091Z,1016.60
2018-07-07T02:47:56.021Z,1016.62
2018-07-07T02:48:56.016Z,1016.63
2018-07-07T02:49:55.942Z,1016.61
2018-07-07T02:50:55.895Z,1016.64
2018-07-07T02:51:55.854Z,1016.66
2018-07-07T02:52:55.838Z,1016.65
2018-07-07T02:53:55.815Z,1016.64
2018-07-07T02:54:55.761Z,1016.65
2018-07-07T02:55:55.732Z,1016.65
2018-07-07T02:56:55.702Z,1016.63
2018-07-07T02:57:55.654Z,1016.66
2018-07-07T02:58:55.645Z,1016.65
2018-07-07T02:59:55.559Z,1016.68
2018-07-07T03:00:55.534Z,1016.64
2018-07-07T03:01:55.500Z,1016.65
2018-07-07T03:02:55.455Z,1016.63
2018-07-07T03:03:55.454Z,1016.64
2018-07-07T03:04:55.380Z,1016.63
2018-07-07T03:05:55.353Z,1016.65
2018-07-07T03:06:55.311Z,1016.67
2018-07-07T03:07:55.293Z,1016.66
2018-07-07T03:08:55.259Z,1016.65
2018-07-07T03:09:55.188Z,1016.63
2018-07-07T03:10:55.151Z,1016.65
2018-07-07T03:11:55.117Z,1016.65
2018-07-07T03:12:55.062Z,1016.65
2018-07-07T03:13:55.089Z,1016.67
2018-07-07T03:14:55.017Z,1016.65
2018-07-07T03:15:54.961Z,1016.71
2018-07-07T03:16:54.911Z,1016.68
2018-07-07T03:17:54.897Z,1016.69
2018-07-07T03:18:54.883Z,1016.70
2018-07-07T03:19:54.832Z,1016.70
2018-07-07T03:20:54.778Z,1016.70
2018-07-07T03:21:54.743Z,1016.73
2018-07-07T03:22:54.717Z,1016.70
2018-07-07T03:23:54.682Z,1016.71
2018-07-07T03:24:54.652Z,1016.72
2018-07-07T03:25:54.596Z,1016.73
2018-07-07T03:26:54.548Z,1016.74
2018-07-07T03:27:54.521Z,1016.77
2018-07-07T03:28:54.507Z,1016.74
2018-07-07T03:29:54.432Z,1016.76
2018-07-07T03:30:54.421Z,1016.74
2018-07-07T03:31:54.381Z,1016.74
2018-07-07T03:32:54.405Z,1016.77
2018-07-07T03:33:54.309Z,1016.78
2018-07-07T03:34:54.245Z,1016.77
2018-07-07T03:35:54.216Z,1016.80
2018-07-07T03:36:54.172Z,1016.83
2018-07-07T03:37:54.172Z,1016.81
2018-07-07T03:38:54.104Z,1016.87
2018-07-07T03:39:54.082Z,1016.83
2018-07-07T03:40:54.042Z,1016.86
2018-07-07T03:41:54.009Z,1016.83
2018-07-07T03:42:53.972Z,1016.84
2018-07-07T03:43:53.908Z,1016.93
2018-07-07T03:44:53.867Z,1016.88
2018-07-07T03:45:53.840Z,1016.93
2018-07-07T03:46:53.840Z,1016.91
2018-07-07T03:49:26.848Z,1016.92
2018-07-07T03:50:26.707Z,1016.94
2018-07-07T03:51:26.671Z,1016.95
2018-07-07T03:52:26.658Z,1016.93
2018-07-07T03:53:26.599Z,1016.93
2018-07-07T03:54:26.569Z,1016.95
2018-07-07T03:55:26.529Z,1016.95
2018-07-07T03:56:26.481Z,1016.94
2018-07-07T03:57:26.467Z,1016.92
2018-07-07T03:58:26.415Z,1016.93
2018-07-07T03:59:26.380Z,1016.91
2018-07-07T04:00:26.341Z,1016.89
2018-07-07T04:01:26.304Z,1016.93
2018-07-07T04:02:26.278Z,1016.93
2018-07-07T04:03:26.222Z,1016.95
2018-07-07T04:04:26.183Z,1016.97
2018-07-07T04:05:26.147Z,1016.96
2018-07-07T04:06:26.113Z,1016.96
2018-07-07T04:07:26.097Z,1016.95
2018-07-07T04:08:26.045Z,1017.00
2018-07-07T04:09:26.001Z,1017.04
2018-07-07T04:10:25.961Z,1017.01
2018-07-07T04:11:25.921Z,1017.02
2018-07-07T04:12:25.920Z,1017.03
2018-07-07T04:13:25.851Z,1017.03
2018-07-07T04:14:25.810Z,1017.05
2018-07-07T04:15:25.767Z,1017.08
2018-07-07T04:16:25.731Z,1017.10
2018-07-07T04:17:25.718Z,1017.10
2018-07-07T04:18:25.663Z,1017.08
2018-07-07T04:19:25.632Z,1017.11
2018-07-07T04:20:25.591Z,1017.07
2018-07-07T04:21:25.553Z,1017.09
2018-07-07T04:22:25.537Z,1017.09
2018-07-07T04:23:25.467Z,1017.12
2018-07-07T04:24:25.446Z,1017.15
2018-07-07T04:25:25.394Z,1017.13
2018-07-07T04:26:25.364Z,1017.14
2018-07-07T04:27:25.353Z,1017.17
2018-07-07T04:28:25.283Z,1017.20
2018-07-07T04:29:25.243Z,1017.18
2018-07-07T04:30:25.212Z,1017.23
2018-07-07T04:31:25.179Z,1017.28
2018-07-07T04:32:25.163Z,1017.24
2018-07-07T04:33:25.109Z,1017.27
2018-07-07T04:34:25.063Z,1017.28
2018-07-07T04:35:25.022Z,1017.24
2018-07-07T04:36:24.981Z,1017.28
2018-07-07T04:37:24.962Z,1017.25
2018-07-07T04:38:24.914Z,1017.26
2018-07-07T04:39:24.880Z,1017.29
2018-07-07T04:40:24.849Z,1017.27
2018-07-07T04:41:24.820Z,1017.29
2018-07-07T04:42:24.759Z,1017.27
2018-07-07T04:43:24.719Z,1017.27
2018-07-07T04:44:24.694Z,1017.25
2018-07-07T04:45:24.648Z,1017.31
2018-07-07T04:46:24.636Z,1017.30
2018-07-07T04:47:24.567Z,1017.34
2018-07-07T04:48:24.538Z,1017.31
2018-07-07T04:49:24.497Z,1017.34
2018-07-07T04:50:24.463Z,1017.35
2018-07-07T04:51:24.447Z,1017.37
2018-07-07T04:52:24.412Z,1017.38
2018-07-07T04:53:24.351Z,1017.39
2018-07-07T04:54:24.308Z,1017.36
2018-07-07T04:55:24.270Z,1017.39
2018-07-07T04:56:24.252Z,1017.41
2018-07-07T04:57:24.194Z,1017.41
2018-07-07T04:58:24.169Z,1017.43
2018-07-07T04:59:24.126Z,1017.45
2018-07-07T05:00:24.087Z,1017.46
2018-07-07T05:01:24.063Z,1017.48
2018-07-07T05:02:24.015Z,1017.48
2018-07-07T05:03:23.981Z,1017.50
2018-07-07T05:04:23.975Z,1017.48
2018-07-07T05:05:23.906Z,1017.47
2018-07-07T05:06:23.880Z,1017.49
2018-07-07T05:07:23.818Z,1017.52
2018-07-07T05:08:23.783Z,1017.50
2018-07-07T05:09:23.743Z,1017.49
2018-07-07T05:10:23.715Z,1017.50
2018-07-07T05:11:23.699Z,1017.52
2018-07-07T05:12:23.641Z,1017.50
2018-07-07T05:13:23.605Z,1017.53
2018-07-07T05:14:23.559Z,1017.52
2018-07-07T05:15:23.555Z,1017.55
2018-07-07T05:16:23.513Z,1017.52
2018-07-07T05:17:23.455Z,1017.57
2018-07-07T05:18:23.409Z,1017.54
2018-07-07T05:19:23.377Z,1017.58
2018-07-07T05:20:23.335Z,1017.58
2018-07-07T05:21:23.318Z,1017.58
2018-07-07T05:22:23.265Z,1017.61
2018-07-07T05:23:23.229Z,1017.66
2018-07-07T05:24:23.199Z,1017.63
2018-07-07T05:25:23.177Z,1017.75
2018-07-07T05:26:23.114Z,1017.72
2018-07-07T05:27:23.077Z,1017.78
2018-07-07T05:28:23.037Z,1017.72
2018-07-07T05:29:23.005Z,1017.81
2018-07-07T05:30:22.994Z,1017.80
2018-07-07T05:31:22.939Z,1017.86
2018-07-07T05:32:22.892Z,1017.88
2018-07-07T05:33:22.864Z,1017.86
2018-07-07T05:34:22.827Z,1017.93
2018-07-07T05:35:22.813Z,1017.94
2018-07-07T05:36:22.758Z,1017.98
2018-07-07T05:37:22.720Z,1017.98
2018-07-07T05:38:22.682Z,1018.00
2018-07-07T05:39:22.648Z,1017.99
2018-07-07T05:40:22.631Z,1017.98
2018-07-07T05:41:22.575Z,1018.03
2018-07-07T05:42:22.544Z,1017.99
2018-07-07T05:43:22.512Z,1017.98
2018-07-07T05:44:22.477Z,1017.99
2018-07-07T05:45:22.464Z,1017.99
2018-07-07T05:46:22.401Z,1018.01
2018-07-07T05:47:22.371Z,1018.03
2018-07-07T05:48:22.344Z,1018.06
2018-07-07T05:49:22.311Z,1018.08
2018-07-07T05:50:22.291Z,1018.12
2018-07-07T05:51:22.236Z,1018.14
2018-07-07T05:52:22.205Z,1018.11
2018-07-07T05:53:22.172Z,1018.13
2018-07-07T05:54:22.146Z,1018.15
2018-07-07T05:55:22.133Z,1018.15
2018-07-07T05:56:22.079Z,1018.14
2018-07-07T05:57:22.090Z,1018.06
2018-07-07T05:58:22.007Z,1018.19
2018-07-07T05:59:21.974Z,1018.14
2018-07-07T06:00:21.961Z,1018.07
2018-07-07T06:01:21.908Z,1018.18
2018-07-07T06:02:21.881Z,1018.24
2018-07-07T06:03:21.848Z,1018.36
2018-07-07T06:04:21.813Z,1018.43
2018-07-07T06:05:21.799Z,1018.40
2018-07-07T06:06:21.754Z,1018.41
2018-07-07T06:07:21.720Z,1018.20
2018-07-07T06:08:21.688Z,1018.18
2018-07-07T06:09:21.678Z,1018.20
2018-07-07T06:10:21.614Z,1018.24
2018-07-07T06:11:21.584Z,1018.14
2018-07-07T06:12:21.552Z,1018.23
2018-07-07T06:13:21.519Z,1018.50
2018-07-07T06:14:21.534Z,1018.53
2018-07-07T06:15:21.459Z,1018.53
2018-07-07T06:16:21.427Z,1018.60
2018-07-07T06:17:21.396Z,1018.63
2018-07-07T06:18:21.375Z,1018.76
2018-07-07T06:19:21.348Z,1018.68
2018-07-07T06:20:21.301Z,1018.49
2018-07-07T06:21:21.268Z,1018.34
2018-07-07T06:22:21.225Z,1018.95
2018-07-07T06:23:21.196Z,1018.98
2018-07-07T06:24:21.184Z,1018.94
2018-07-07T06:25:21.132Z,1018.96
2018-07-07T06:26:21.111Z,1018.98
2018-07-07T06:27:21.076Z,1018.92
2018-07-07T06:28:21.047Z,1018.91
2018-07-07T06:29:21.031Z,1018.94
2018-07-07T06:30:20.973Z,1018.87
2018-07-07T06:31:20.939Z,1018.91
2018-07-07T06:32:20.909Z,1018.93
2018-07-07T06:33:20.879Z,1018.93
2018-07-07T06:34:20.874Z,1018.87
2018-07-07T06:35:20.820Z,1018.88
2018-07-07T06:36:20.784Z,1018.97
2018-07-07T06:37:20.803Z,1018.98
2018-07-07T06:38:20.727Z,1018.94
2018-07-07T06:39:20.725Z,1018.98
2018-07-07T06:40:20.663Z,1018.95
2018-07-07T06:41:20.635Z,1019.01
2018-07-07T06:42:20.598Z,1019.09
2018-07-07T06:43:20.565Z,1019.11
2018-07-07T06:44:20.533Z,1019.17
2018-07-07T06:45:20.525Z,1019.26
2018-07-07T06:46:20.553Z,1019.29
2018-07-07T06:47:20.492Z,1019.37
2018-07-07T06:48:20.435Z,1019.47
2018-07-07T06:49:20.399Z,1019.44
2018-07-07T06:50:20.372Z,1019.50
2018-07-07T06:51:20.321Z,1019.59
2018-07-07T06:52:20.297Z,1019.57
2018-07-07T06:53:20.317Z,1019.63
2018-07-07T06:54:20.234Z,1019.67
2018-07-07T06:55:20.225Z,1019.71
2018-07-07T06:56:20.175Z,1019.82
2018-07-07T06:57:20.138Z,1020.01
2018-07-07T06:58:20.133Z,1020.06
2018-07-07T06:59:20.082Z,1020.07
2018-07-07T07:00:20.055Z,1020.07
2018-07-07T07:01:20.046Z,1020.13
2018-07-07T07:02:19.986Z,1020.17
2018-07-07T07:03:19.978Z,1020.16
2018-07-07T07:04:19.927Z,1020.08
2018-07-07T07:05:19.899Z,1020.01
2018-07-07T07:06:19.902Z,1019.95
2018-07-07T07:07:19.842Z,1019.82
2018-07-07T07:08:19.817Z,1019.82
2018-07-07T07:09:19.779Z,1019.75
2018-07-07T07:10:19.750Z,1019.71
2018-07-07T07:11:19.747Z,1019.64
2018-07-07T07:12:19.696Z,1019.58
2018-07-07T07:13:19.664Z,1019.48
2018-07-07T07:14:19.656Z,1019.45
2018-07-07T07:15:19.598Z,1019.41
2018-07-07T07:16:19.593Z,1019.40
2018-07-07T07:17:19.549Z,1019.40
2018-07-07T07:18:19.515Z,1019.35
2018-07-07T07:19:19.489Z,1019.37
2018-07-07T07:20:19.513Z,1019.37
2018-07-07T07:21:19.426Z,1019.44
2018-07-07T07:22:19.407Z,1019.41
2018-07-07T07:23:19.358Z,1019.40
2018-07-07T07:24:19.338Z,1019.40
2018-07-07T07:25:19.542Z,1019.35
2018-07-07T07:26:19.358Z,1019.38
2018-07-07T07:27:19.239Z,1019.35
2018-07-07T07:28:19.212Z,1019.40
2018-07-07T07:29:19.184Z,1019.39
2018-07-07T07:30:19.157Z,1019.36
2018-07-07T07:31:19.129Z,1019.33
2018-07-07T07:32:19.120Z,1019.38
2018-07-07T07:33:19.068Z,1019.38
2018-07-07T07:34:19.034Z,1019.38
2018-07-07T07:35:19.005Z,1019.33
2018-07-07T07:36:18.972Z,1019.38
2018-07-07T07:37:18.966Z,1019.37
2018-07-07T07:38:18.917Z,1019.36
2018-07-07T07:39:18.890Z,1019.38
2018-07-07T07:40:18.851Z,1019.32
2018-07-07T07:41:18.823Z,1019.36
2018-07-07T07:42:18.825Z,1019.28
2018-07-07T07:43:18.839Z,1019.29
2018-07-07T07:44:18.738Z,1019.23
2018-07-07T07:45:18.712Z,1019.27
2018-07-07T07:46:18.685Z,1019.28
2018-07-07T07:47:18.674Z,1019.24
2018-07-07T07:48:18.614Z,1019.29
2018-07-07T07:49:18.589Z,1019.27
2018-07-07T07:50:18.563Z,1019.26
2018-07-07T07:51:18.575Z,1019.28
2018-07-07T07:52:18.526Z,1019.32
2018-07-07T07:53:18.499Z,1019.31
2018-07-07T07:54:18.437Z,1019.29
2018-07-07T07:55:18.417Z,1019.28
2018-07-07T07:56:18.389Z,1019.25
2018-07-07T07:57:18.393Z,1019.28
2018-07-07T07:58:18.320Z,1019.22
2018-07-07T07:59:18.299Z,1019.14
2018-07-07T08:00:18.269Z,1019.28
2018-07-07T08:01:18.238Z,1019.21
2018-07-07T08:02:18.216Z,1019.25
2018-07-07T08:03:18.208Z,1019.25
2018-07-07T08:04:18.207Z,1019.28
2018-07-07T08:05:18.137Z,1019.24
2018-07-07T08:06:18.094Z,1019.31
2018-07-07T08:07:18.060Z,1019.29
2018-07-07T08:08:18.063Z,1019.27
2018-07-07T08:09:18.063Z,1019.26
2018-07-07T08:10:17.981Z,1019.27
2018-07-07T08:11:17.973Z,1019.28
2018-07-07T08:12:17.927Z,1019.28
2018-07-07T08:13:17.894Z,1019.26
2018-07-07T08:14:17.898Z,1019.24
2018-07-07T08:15:17.839Z,1019.26
2018-07-07T08:16:17.816Z,1019.24
2018-07-07T08:17:18.443Z,1019.18
2018-07-07T08:18:17.750Z,1019.19
2018-07-07T08:19:17.745Z,1019.17
2018-07-07T08:20:17.741Z,1019.14
2018-07-07T08:21:17.667Z,1019.08
2018-07-07T08:22:17.663Z,1019.10
2018-07-07T08:23:17.615Z,1019.09
2018-07-07T08:24:17.655Z,1019.12
2018-07-07T08:25:17.583Z,1019.12
2018-07-07T08:26:17.526Z,1019.15
2018-07-07T08:27:17.494Z,1019.13
2018-07-07T08:28:17.499Z,1019.06
2018-07-07T08:29:17.472Z,1019.10
2018-07-07T08:30:17.425Z,1019.04
2018-07-07T08:31:17.386Z,1019.08
2018-07-07T08:32:17.405Z,1019.07
2018-07-07T08:33:17.325Z,1019.08
2018-07-07T08:34:17.312Z,1019.05
2018-07-07T08:35:17.306Z,1019.05
2018-07-07T08:36:17.259Z,1019.09
2018-07-07T08:37:17.226Z,1019.07
2018-07-07T08:38:17.190Z,1019.10
2018-07-07T08:39:17.189Z,1018.86
2018-07-07T08:40:17.135Z,1018.93
2018-07-07T08:41:17.107Z,1018.92
2018-07-07T08:42:17.092Z,1019.01
2018-07-07T08:43:17.061Z,1019.16
2018-07-07T08:44:17.023Z,1019.01
2018-07-07T08:45:17.020Z,1018.98
2018-07-07T08:46:16.985Z,1019.10
2018-07-07T08:47:16.950Z,1018.87
2018-07-07T08:48:16.925Z,1018.98
2018-07-07T08:49:16.901Z,1018.98
2018-07-07T08:50:16.880Z,1018.83
2018-07-07T08:51:16.835Z,1018.78
2018-07-07T08:52:16.806Z,1018.77
2018-07-07T08:53:16.778Z,1018.72
2018-07-07T08:54:16.758Z,1018.75
2018-07-07T08:55:16.752Z,1018.71
2018-07-07T08:56:16.701Z,1018.68
2018-07-07T08:57:16.678Z,1018.67
2018-07-07T08:58:16.637Z,1018.74
2018-07-07T08:59:16.612Z,1018.69
2018-07-07T09:00:16.630Z,1018.68
2018-07-07T09:01:16.564Z,1018.83
2018-07-07T09:02:16.615Z,1018.81
2018-07-07T09:03:16.508Z,1018.76
2018-07-07T09:04:16.475Z,1018.70
2018-07-07T09:05:16.450Z,1018.78
2018-07-07T09:06:16.449Z,1018.76
2018-07-07T09:07:16.403Z,1018.68
2018-07-07T09:08:16.371Z,1018.86
2018-07-07T09:09:16.347Z,1018.87
2018-07-07T09:10:16.313Z,1018.92
2018-07-07T09:11:16.305Z,1019.01
2018-07-07T09:12:16.259Z,1018.90
2018-07-07T09:13:16.229Z,1018.89
2018-07-07T09:14:16.257Z,1018.93
2018-07-07T09:15:16.182Z,1018.80
2018-07-07T09:16:16.171Z,1018.86
2018-07-07T09:17:16.116Z,1018.90
2018-07-07T09:18:16.107Z,1018.88
2018-07-07T09:19:16.073Z,1018.82
2018-07-07T09:20:16.077Z,1018.73
2018-07-07T09:21:16.044Z,1018.69
2018-07-07T09:22:16.004Z,1018.67
2018-07-07T09:23:15.957Z,1018.75
2018-07-07T09:24:15.928Z,1018.73
2018-07-07T09:25:15.903Z,1018.85
2018-07-07T09:26:15.888Z,1018.79
2018-07-07T09:27:15.875Z,1018.65
2018-07-07T09:28:15.828Z,1018.67
2018-07-07T09:29:15.797Z,1018.70
2018-07-07T09:30:15.767Z,1018.69
2018-07-07T09:31:15.737Z,1018.70
2018-07-07T09:32:15.743Z,1018.71
2018-07-07T09:33:15.715Z,1018.70
2018-07-07T09:34:15.680Z,1018.69
2018-07-07T09:35:15.632Z,1018.68
2018-07-07T09:36:15.606Z,1018.67
2018-07-07T09:37:15.606Z,1018.64
2018-07-07T09:38:15.558Z,1018.67
2018-07-07T09:39:15.536Z,1018.66
2018-07-07T09:40:15.502Z,1018.72
2018-07-07T09:41:15.478Z,1018.83
2018-07-07T09:42:15.442Z,1018.67
2018-07-07T09:43:15.438Z,1018.73
2018-07-07T09:44:15.392Z,1018.69
2018-07-07T09:45:15.363Z,1018.67
2018-07-07T09:46:15.351Z,1018.67
2018-07-07T09:47:15.314Z,1018.72
2018-07-07T09:48:15.311Z,1018.77
2018-07-07T09:49:15.256Z,1018.86
2018-07-07T09:50:15.240Z,1018.82
2018-07-07T09:51:15.209Z,1018.79
2018-07-07T09:52:15.187Z,1018.74
2018-07-07T09:53:15.184Z,1018.69
2018-07-07T09:54:15.131Z,1018.68
2018-07-07T09:55:15.097Z,1018.68
2018-07-07T09:56:15.101Z,1018.60
2018-07-07T09:57:15.044Z,1018.66
2018-07-07T09:58:15.030Z,1018.72
2018-07-07T09:59:15.049Z,1018.76
2018-07-07T10:00:14.975Z,1018.73
2018-07-07T10:01:14.950Z,1018.71
2018-07-07T10:02:14.914Z,1018.71
2018-07-07T10:03:14.891Z,1018.69
2018-07-07T10:04:14.895Z,1018.69
2018-07-07T10:05:14.849Z,1018.69
2018-07-07T10:06:14.812Z,1018.65
2018-07-07T10:07:14.789Z,1018.67
2018-07-07T10:08:14.766Z,1018.63
2018-07-07T10:09:14.759Z,1018.67
2018-07-07T10:10:14.722Z,1018.62
2018-07-07T10:11:14.695Z,1018.67
2018-07-07T10:12:14.672Z,1018.62
2018-07-07T10:13:14.648Z,1018.56
2018-07-07T10:14:14.634Z,1018.59
2018-07-07T10:15:14.589Z,1018.55
2018-07-07T10:16:14.558Z,1018.55
2018-07-07T10:17:14.538Z,1018.55
2018-07-07T10:18:14.519Z,1018.54
2018-07-07T10:19:14.515Z,1018.56
2018-07-07T10:20:14.461Z,1018.64
2018-07-07T10:21:14.434Z,1018.56
2018-07-07T10:22:14.420Z,1018.49
2018-07-07T10:23:14.391Z,1018.48
2018-07-07T10:24:14.386Z,1018.53
2018-07-07T10:25:14.342Z,1018.53
2018-07-07T10:26:14.315Z,1018.49
2018-07-07T10:27:14.284Z,1018.48
2018-07-07T10:28:14.252Z,1018.45
2018-07-07T10:29:14.247Z,1018.44
2018-07-07T10:30:14.208Z,1018.45
2018-07-07T10:31:14.182Z,1018.45
2018-07-07T10:32:14.156Z,1018.41
2018-07-07T10:33:14.129Z,1018.45
2018-07-07T10:34:14.119Z,1018.45
2018-07-07T10:35:14.070Z,1018.47
2018-07-07T10:36:14.055Z,1018.53
2018-07-07T10:37:14.029Z,1018.50
2018-07-07T10:38:14.052Z,1018.55
2018-07-07T10:39:13.986Z,1018.55
2018-07-07T10:40:13.941Z,1018.54
2018-07-07T10:41:13.916Z,1018.55
2018-07-07T10:42:13.892Z,1018.60
2018-07-07T10:43:13.868Z,1018.55
2018-07-07T10:44:13.863Z,1018.61
2018-07-07T10:45:13.817Z,1018.60
2018-07-07T10:46:13.791Z,1018.62
2018-07-07T10:47:13.761Z,1018.59
2018-07-07T10:48:13.734Z,1018.61
2018-07-07T10:49:13.742Z,1018.60
2018-07-07T10:50:13.687Z,1018.61
2018-07-07T10:51:13.666Z,1018.60
2018-07-07T10:52:13.629Z,1018.55
2018-07-07T10:53:13.608Z,1018.55
2018-07-07T10:54:13.589Z,1018.57
2018-07-07T10:55:13.589Z,1018.52
2018-07-07T10:56:13.533Z,1018.53
2018-07-07T10:57:13.552Z,1018.51
2018-07-07T10:58:13.490Z,1018.56
2018-07-07T10:59:13.453Z,1018.59
2018-07-07T11:00:13.457Z,1018.53
2018-07-07T11:01:13.400Z,1018.65
2018-07-07T11:02:13.389Z,1018.51
2018-07-07T11:03:13.356Z,1018.79
2018-07-07T11:04:13.339Z,1018.77
2018-07-07T11:05:13.334Z,1018.80
2018-07-07T11:06:13.275Z,1018.83
2018-07-07T11:07:13.247Z,1018.78
2018-07-07T11:08:13.234Z,1018.76
2018-07-07T11:09:13.224Z,1018.80
2018-07-07T11:10:13.170Z,1018.82
2018-07-07T11:11:13.169Z,1018.81
2018-07-07T11:12:13.120Z,1018.79
2018-07-07T11:13:13.095Z,1018.75
2018-07-07T11:14:13.086Z,1018.75
2018-07-07T11:15:13.050Z,1018.73
2018-07-07T11:16:13.050Z,1018.64
2018-07-07T11:17:12.999Z,1018.65
2018-07-07T11:18:12.963Z,1018.69
2018-07-07T11:19:12.940Z,1018.66
2018-07-07T11:20:12.918Z,1018.66
2018-07-07T11:21:12.914Z,1018.62
2018-07-07T11:22:12.871Z,1018.64
2018-07-07T11:23:12.841Z,1018.57
2018-07-07T11:24:12.811Z,1018.49
2018-07-07T11:25:12.788Z,1018.52
2018-07-07T11:26:12.766Z,1018.51
2018-07-07T11:27:12.763Z,1018.52
2018-07-07T11:28:12.717Z,1018.55
2018-07-07T11:29:12.692Z,1018.53
2018-07-07T11:30:12.657Z,1018.52
2018-07-07T11:31:12.633Z,1018.52
2018-07-07T11:32:12.628Z,1018.52
2018-07-07T11:33:12.593Z,1018.56
2018-07-07T11:34:12.557Z,1018.49
2018-07-07T11:35:12.535Z,1018.42
2018-07-07T11:36:12.541Z,1018.61
2018-07-07T11:37:12.506Z,1018.50
2018-07-07T11:38:12.449Z,1018.55
2018-07-07T11:39:12.422Z,1018.53
2018-07-07T11:40:12.403Z,1018.56
2018-07-07T11:41:12.387Z,1018.60
2018-07-07T11:42:12.422Z,1018.57
2018-07-07T11:43:12.317Z,1018.49
2018-07-07T11:44:12.293Z,1018.38
2018-07-07T11:45:12.264Z,1018.34
2018-07-07T11:46:12.247Z,1018.31
2018-07-07T11:47:12.218Z,1018.36
2018-07-07T11:48:12.213Z,1018.34
2018-07-07T11:49:12.166Z,1018.34
2018-07-07T11:50:12.205Z,1018.36
2018-07-07T11:51:12.109Z,1018.38
2018-07-07T11:52:12.080Z,1018.36
2018-07-07T11:53:12.085Z,1018.33
2018-07-07T11:54:12.033Z,1018.34
2018-07-07T11:55:12.013Z,1018.29
2018-07-07T11:56:11.976Z,1018.30
2018-07-07T11:57:11.969Z,1018.29
2018-07-07T11:58:11.955Z,1018.19
2018-07-07T11:59:11.900Z,1018.26
2018-07-07T12:00:11.874Z,1018.37
2018-07-07T12:01:11.851Z,1018.40
2018-07-07T12:02:11.818Z,1018.33
2018-07-07T12:03:11.788Z,1018.21
2018-07-07T12:04:11.783Z,1018.28
2018-07-07T12:05:11.739Z,1018.27
2018-07-07T12:06:11.715Z,1018.35